createdAt,value
2018-08-01T04:10:09.582Z,20.52
2018-08-01T04:10:35.095Z,20.56
2018-08-01T04:11:00.570Z,20.55
2018-08-01T04:11:26.061Z,20.52
2018-08-01T04:11:51.526Z,20.51
2018-08-01T04:12:17.028Z,20.51
2018-08-01T04:12:42.540Z,20.62
2018-08-01T04:13:08.029Z,20.65
2018-08-01T04:13:33.527Z,20.58
2018-08-01T04:13:59.029Z,20.63
2018-08-01T04:14:24.526Z,20.63
2018-08-01T04:14:50.066Z,20.56
2018-08-01T04:15:15.522Z,20.56
2018-08-01T04:15:41.012Z,20.62
2018-08-01T04:16:06.522Z,20.65
2018-08-01T04:16:32.023Z,20.62
2018-08-01T04:16:57.517Z,20.59
2018-08-01T04:17:23.040Z,20.6
2018-08-01T04:17:48.550Z,20.63
2018-08-01T04:18:14.055Z,20.6
2018-08-01T04:18:39.593Z,20.59
2018-08-01T04:19:05.071Z,20.63
2018-08-01T04:19:30.587Z,20.6
2018-08-01T04:19:56.069Z,20.63
2018-08-01T04:20:21.557Z,20.62
2018-08-01T04:20:47.051Z,20.56
2018-08-01T04:21:12.558Z,20.63
2018-08-01T04:21:38.024Z,20.6
2018-08-01T04:22:03.538Z,20.55
2018-08-01T04:22:29.012Z,20.6
2018-08-01T04:22:54.505Z,20.58
2018-08-01T04:23:20.054Z,20.51
2018-08-01T04:23:45.550Z,20.55
2018-08-01T04:24:11.044Z,20.5
2018-08-01T04:24:36.521Z,20.55
2018-08-01T04:25:02.061Z,20.51
2018-08-01T04:25:27.500Z,20.48
2018-08-01T04:25:53.009Z,20.55
2018-08-01T04:26:18.497Z,20.52
2018-08-01T04:26:43.998Z,20.52
2018-08-01T04:27:09.543Z,20.55
2018-08-01T04:27:34.974Z,20.55
2018-08-01T04:28:00.486Z,20.51
2018-08-01T04:28:25.996Z,20.51
2018-08-01T04:28:51.505Z,20.56
2018-08-01T04:29:17.001Z,20.55
2018-08-01T04:29:42.485Z,20.56
2018-08-01T04:30:07.965Z,20.5
2018-08-01T04:30:33.464Z,20.48
2018-08-01T04:30:58.947Z,20.59
2018-08-01T04:31:24.509Z,20.52
2018-08-01T04:31:50.025Z,20.6
2018-08-01T04:32:15.547Z,20.59
2018-08-01T04:32:41.150Z,20.52
2018-08-01T04:33:06.686Z,20.63
2018-08-01T04:33:32.114Z,20.62
2018-08-01T04:33:57.598Z,20.55
2018-08-01T04:34:23.107Z,20.59
2018-08-01T04:34:48.605Z,20.56
2018-08-01T04:35:14.101Z,20.63
2018-08-01T04:35:39.614Z,20.58
2018-08-01T04:36:05.124Z,20.66
2018-08-01T04:36:30.599Z,20.62
2018-08-01T04:36:56.131Z,20.66
2018-08-01T04:37:21.655Z,20.67
2018-08-01T04:37:47.187Z,20.58
2018-08-01T04:38:12.679Z,20.6
2018-08-01T04:38:38.229Z,20.67
2018-08-01T04:39:03.712Z,20.62
2018-08-01T04:39:29.195Z,20.69
2018-08-01T04:39:54.712Z,20.66
2018-08-01T04:40:20.218Z,20.65
2018-08-01T04:40:45.712Z,20.69
2018-08-01T04:41:11.205Z,20.6
2018-08-01T04:41:36.999Z,20.62
2018-08-01T04:42:02.501Z,20.66
2018-08-01T04:42:27.999Z,20.72
2018-08-01T04:42:53.479Z,20.7
2018-08-01T04:43:19.005Z,20.7
2018-08-01T04:43:44.506Z,20.72
2018-08-01T04:44:10.014Z,20.74
2018-08-01T04:44:35.508Z,20.72
2018-08-01T04:45:01.010Z,20.67
2018-08-01T04:45:26.631Z,20.7
2018-08-01T04:45:51.988Z,20.72
2018-08-01T04:46:17.500Z,20.7
2018-08-01T04:46:43.000Z,20.7
2018-08-01T04:47:08.500Z,20.7
2018-08-01T04:47:33.951Z,20.72
2018-08-01T04:47:59.479Z,20.74
2018-08-01T04:48:25.027Z,20.77
2018-08-01T04:48:50.543Z,20.78
2018-08-01T04:49:16.012Z,20.88
2018-08-01T04:49:41.517Z,20.82
2018-08-01T04:50:07.004Z,20.93
2018-08-01T04:50:32.573Z,20.84
2018-08-01T04:50:58.024Z,20.93
2018-08-01T04:51:23.541Z,21.06
2018-08-01T04:51:49.053Z,20.97
2018-08-01T04:52:58.382Z,21.15
2018-08-01T04:53:24.029Z,21.14
2018-08-01T04:53:49.556Z,21.27
2018-08-01T04:54:15.085Z,21.27
2018-08-01T04:54:40.587Z,21.36
2018-08-01T04:55:06.099Z,21.25
2018-08-01T04:55:31.596Z,21.32
2018-08-01T04:55:57.090Z,21.4
2018-08-01T04:56:22.564Z,21.43
2018-08-01T04:56:48.032Z,21.46
2018-08-01T04:57:46.535Z,21.58
2018-08-01T04:58:12.028Z,21.57
2018-08-01T04:58:37.651Z,21.69
2018-08-01T04:59:03.059Z,21.67
2018-08-01T04:59:28.558Z,21.64
2018-08-01T04:59:54.034Z,21.7
2018-08-01T05:00:19.542Z,21.79
2018-08-01T05:00:45.052Z,21.79
2018-08-01T05:01:10.551Z,21.82
2018-08-01T05:01:36.031Z,21.89
2018-08-01T05:02:01.518Z,21.89
2018-08-01T05:02:27.025Z,21.89
2018-08-01T05:02:52.486Z,21.83
2018-08-01T05:03:18.001Z,21.96
2018-08-01T05:03:43.525Z,21.95
2018-08-01T05:04:09.041Z,22.02
2018-08-01T05:04:34.528Z,22.06
2018-08-01T05:05:00.025Z,21.98
2018-08-01T05:05:25.499Z,22.06
2018-08-01T05:05:51.006Z,22.11
2018-08-01T05:06:16.507Z,22.08
2018-08-01T05:06:42.013Z,22.02
2018-08-01T05:07:07.486Z,22.1
2018-08-01T05:07:33.143Z,22.06
2018-08-01T05:07:58.624Z,22.17
2018-08-01T05:08:24.107Z,22.29
2018-08-01T05:08:49.624Z,22.23
2018-08-01T05:09:15.120Z,22.29
2018-08-01T05:09:40.651Z,22.3
2018-08-01T05:10:06.136Z,22.26
2018-08-01T05:10:31.654Z,22.26
2018-08-01T05:10:57.151Z,22.32
2018-08-01T05:11:22.649Z,22.38
2018-08-01T05:11:48.128Z,22.39
2018-08-01T05:12:13.640Z,22.36
2018-08-01T05:12:39.263Z,22.32
2018-08-01T05:13:27.749Z,22.41
2018-08-01T05:13:53.215Z,22.39
2018-08-01T05:14:18.734Z,22.44
2018-08-01T05:14:44.310Z,22.41
2018-08-01T05:15:09.947Z,22.41
2018-08-01T05:15:35.449Z,22.41
2018-08-01T05:16:00.925Z,22.48
2018-08-01T05:16:26.454Z,22.47
2018-08-01T05:16:51.971Z,22.43
2018-08-01T05:17:17.486Z,22.39
2018-08-01T05:17:43.019Z,22.47
2018-08-01T05:18:08.500Z,22.44
2018-08-01T05:18:34.038Z,22.44
2018-08-01T05:18:59.555Z,22.43
2018-08-01T05:19:25.264Z,22.43
2018-08-01T05:19:50.851Z,22.32
2018-08-01T05:20:54.458Z,22.45
2018-08-01T05:21:19.951Z,22.44
2018-08-01T05:21:45.446Z,22.45
2018-08-01T05:22:10.952Z,22.45
2018-08-01T05:22:36.462Z,22.38
2018-08-01T05:23:01.951Z,22.45
2018-08-01T05:23:27.466Z,22.43
2018-08-01T05:23:53.017Z,22.39
2018-08-01T05:24:18.541Z,22.45
2018-08-01T05:24:44.061Z,22.43
2018-08-01T05:25:09.529Z,22.48
2018-08-01T05:25:35.052Z,22.48
2018-08-01T05:26:00.542Z,22.54
2018-08-01T05:26:26.109Z,22.57
2018-08-01T05:26:51.738Z,22.62
2018-08-01T05:27:17.238Z,22.55
2018-08-01T05:27:42.730Z,22.65
2018-08-01T05:28:08.213Z,22.63
2018-08-01T05:28:33.691Z,22.63
2018-08-01T05:28:59.181Z,22.75
2018-08-01T05:29:24.653Z,22.73
2018-08-01T05:29:50.162Z,22.7
2018-08-01T05:30:15.698Z,22.75
2018-08-01T05:30:41.157Z,22.78
2018-08-01T05:31:06.634Z,22.9
2018-08-01T05:31:32.155Z,22.78
2018-08-01T05:31:57.629Z,22.84
2018-08-01T05:32:23.127Z,22.87
2018-08-01T05:32:48.610Z,22.9
2018-08-01T05:33:14.150Z,22.99
2018-08-01T05:33:39.667Z,22.98
2018-08-01T05:34:05.138Z,23.06
2018-08-01T05:34:30.635Z,23.06
2018-08-01T05:34:56.132Z,23.06
2018-08-01T05:35:21.660Z,23.12
2018-08-01T05:35:47.208Z,23.2
2018-08-01T05:36:12.721Z,23.23
2018-08-01T05:36:38.208Z,23.23
2018-08-01T05:37:03.745Z,23.24
2018-08-01T05:37:29.247Z,23.24
2018-08-01T05:37:54.748Z,23.23
2018-08-01T05:38:20.227Z,23.31
2018-08-01T05:38:45.830Z,23.37
2018-08-01T05:39:11.313Z,23.39
2018-08-01T05:40:20.753Z,23.54
2018-08-01T05:40:46.249Z,23.5
2018-08-01T05:41:11.758Z,23.5
2018-08-01T05:41:37.303Z,23.63
2018-08-01T05:42:02.762Z,23.61
2018-08-01T05:42:28.268Z,23.65
2018-08-01T05:42:53.792Z,23.63
2018-08-01T05:43:19.275Z,23.62
2018-08-01T05:43:44.763Z,23.71
2018-08-01T05:44:10.251Z,23.71
2018-08-01T05:44:35.749Z,23.66
2018-08-01T05:45:01.246Z,23.66
2018-08-01T05:45:26.727Z,23.74
2018-08-01T05:45:52.205Z,23.78
2018-08-01T05:46:17.680Z,23.83
2018-08-01T05:46:43.181Z,23.74
2018-08-01T05:47:08.678Z,23.83
2018-08-01T05:47:34.206Z,23.92
2018-08-01T05:47:59.658Z,23.98
2018-08-01T05:48:25.142Z,23.93
2018-08-01T05:48:50.654Z,23.99
2018-08-01T05:49:16.222Z,23.98
2018-08-01T05:49:41.743Z,24.03
2018-08-01T05:50:07.220Z,24.01
2018-08-01T05:50:32.742Z,24.05
2018-08-01T05:50:58.368Z,24.06
2018-08-01T05:51:23.737Z,24.1
2018-08-01T05:51:49.285Z,24.17
2018-08-01T05:52:14.744Z,24.13
2018-08-01T05:52:40.236Z,24.17
2018-08-01T05:53:05.729Z,24.24
2018-08-01T05:53:31.227Z,24.26
2018-08-01T05:53:56.701Z,24.24
2018-08-01T05:54:22.194Z,24.32
2018-08-01T05:54:47.724Z,24.3
2018-08-01T05:55:13.206Z,24.39
2018-08-01T05:55:38.695Z,24.38
2018-08-01T05:56:04.178Z,24.42
2018-08-01T05:56:29.650Z,24.51
2018-08-01T05:56:55.267Z,24.43
2018-08-01T05:57:20.691Z,24.51
2018-08-01T05:57:46.189Z,24.43
2018-08-01T05:58:11.708Z,24.42
2018-08-01T05:58:37.241Z,24.42
2018-08-01T05:59:02.740Z,24.5
2018-08-01T05:59:28.339Z,24.48
2018-08-01T05:59:53.841Z,24.55
2018-08-01T06:00:19.359Z,24.53
2018-08-01T06:00:44.819Z,24.57
2018-08-01T06:01:10.311Z,24.51
2018-08-01T06:01:35.832Z,24.55
2018-08-01T06:02:01.325Z,24.54
2018-08-01T06:02:26.807Z,24.53
2018-08-01T06:02:52.312Z,24.54
2018-08-01T06:03:17.775Z,24.54
2018-08-01T06:03:43.271Z,24.5
2018-08-01T06:04:08.773Z,24.55
2018-08-01T06:04:34.267Z,24.5
2018-08-01T06:04:59.771Z,24.43
2018-08-01T06:05:25.266Z,24.51
2018-08-01T06:05:50.728Z,24.51
2018-08-01T06:06:16.242Z,24.48
2018-08-01T06:06:41.742Z,24.5
2018-08-01T06:07:07.254Z,24.43
2018-08-01T06:07:32.996Z,24.51
2018-08-01T06:07:58.253Z,24.42
2018-08-01T06:08:23.774Z,24.35
2018-08-01T06:08:49.284Z,24.51
2018-08-01T06:09:14.750Z,24.36
2018-08-01T06:09:40.267Z,24.42
2018-08-01T06:10:05.746Z,24.43
2018-08-01T06:10:31.230Z,24.43
2018-08-01T06:10:56.742Z,24.54
2018-08-01T06:11:22.360Z,24.43
2018-08-01T06:11:47.792Z,24.48
2018-08-01T06:12:13.258Z,24.47
2018-08-01T06:12:38.800Z,24.43
2018-08-01T06:13:04.283Z,24.54
2018-08-01T06:13:29.751Z,24.53
2018-08-01T06:13:55.282Z,24.57
2018-08-01T06:14:20.751Z,24.6
2018-08-01T06:14:46.269Z,24.53
2018-08-01T06:15:11.769Z,24.7
2018-08-01T06:15:37.327Z,24.68
2018-08-01T06:16:02.814Z,24.66
2018-08-01T06:16:28.327Z,24.63
2018-08-01T06:16:53.819Z,24.68
2018-08-01T06:17:19.310Z,24.68
2018-08-01T06:17:44.832Z,24.68
2018-08-01T06:18:10.315Z,24.66
2018-08-01T06:18:35.830Z,24.61
2018-08-01T06:19:01.319Z,24.68
2018-08-01T06:19:26.837Z,24.66
2018-08-01T06:19:52.332Z,24.7
2018-08-01T06:20:17.827Z,24.61
2018-08-01T06:20:43.330Z,24.7
2018-08-01T06:21:08.787Z,24.73
2018-08-01T06:21:34.526Z,24.78
2018-08-01T06:22:00.011Z,24.78
2018-08-01T06:22:25.518Z,24.7
2018-08-01T06:22:51.045Z,24.73
2018-08-01T06:23:16.518Z,24.81
2018-08-01T06:23:42.035Z,24.81
2018-08-01T06:24:07.503Z,24.85
2018-08-01T06:24:33.021Z,24.93
2018-08-01T06:24:58.495Z,24.98
2018-08-01T06:25:23.973Z,24.98
2018-08-01T06:25:49.460Z,24.95
2018-08-01T06:26:14.948Z,25.03
2018-08-01T06:26:40.453Z,25.03
2018-08-01T06:27:05.939Z,25.06
2018-08-01T06:27:31.429Z,25.1
2018-08-01T06:27:56.914Z,25.1
2018-08-01T06:28:22.414Z,25.18
2018-08-01T06:28:47.926Z,25.26
2018-08-01T06:29:13.437Z,25.29
2018-08-01T06:29:38.921Z,25.26
2018-08-01T06:30:04.404Z,25.31
2018-08-01T06:30:29.853Z,25.41
2018-08-01T06:30:55.563Z,25.43
2018-08-01T06:31:21.049Z,25.48
2018-08-01T06:32:19.568Z,25.51
2018-08-01T06:32:45.062Z,25.51
2018-08-01T06:33:10.578Z,25.66
2018-08-01T06:33:58.876Z,25.73
2018-08-01T06:34:24.371Z,25.73
2018-08-01T06:34:49.859Z,25.8
2018-08-01T06:35:15.359Z,25.87
2018-08-01T06:35:40.840Z,25.85
2018-08-01T06:36:06.340Z,25.87
2018-08-01T06:36:31.835Z,25.96
2018-08-01T06:36:57.310Z,25.99
2018-08-01T06:37:22.788Z,25.98
2018-08-01T06:37:48.286Z,26.07
2018-08-01T06:38:13.894Z,26.1
2018-08-01T06:38:39.301Z,26.09
2018-08-01T06:39:04.776Z,26.1
2018-08-01T06:39:30.249Z,26.13
2018-08-01T06:39:55.744Z,26.05
2018-08-01T06:40:21.241Z,26.1
2018-08-01T06:40:46.706Z,26.13
2018-08-01T06:41:12.215Z,26.16
2018-08-01T06:41:37.709Z,26.09
2018-08-01T06:42:03.224Z,26.02
2018-08-01T06:42:28.724Z,26.05
2018-08-01T06:42:54.226Z,26.09
2018-08-01T06:43:19.721Z,26.03
2018-08-01T06:43:45.271Z,26.18
2018-08-01T06:44:10.797Z,26.19
2018-08-01T06:44:36.491Z,26.21
2018-08-01T06:45:01.932Z,26.22
2018-08-01T06:45:27.455Z,26.23
2018-08-01T06:45:52.984Z,26.23
2018-08-01T06:46:18.472Z,26.28
2018-08-01T06:46:44.008Z,26.25
2018-08-01T06:47:09.469Z,26.28
2018-08-01T06:47:34.967Z,26.34
2018-08-01T06:48:00.496Z,26.36
2018-08-01T06:48:26.017Z,26.37
2018-08-01T06:48:51.570Z,26.37
2018-08-01T06:49:17.042Z,26.36
2018-08-01T06:49:42.584Z,26.53
2018-08-01T06:50:08.096Z,26.51
2018-08-01T06:50:33.665Z,26.56
2018-08-01T06:50:59.154Z,26.56
2018-08-01T06:51:24.669Z,26.47
2018-08-01T06:51:50.155Z,26.48
2018-08-01T06:52:38.465Z,26.53
2018-08-01T06:53:03.956Z,26.52
2018-08-01T06:53:29.453Z,26.48
2018-08-01T06:53:54.950Z,26.41
2018-08-01T06:54:20.569Z,26.48
2018-08-01T06:54:45.964Z,26.38
2018-08-01T06:55:11.602Z,26.37
2018-08-01T06:55:37.430Z,26.37
2018-08-01T06:56:02.836Z,26.34
2018-08-01T06:56:28.354Z,26.25
2018-08-01T06:56:53.855Z,26.28
2018-08-01T06:57:19.349Z,26.25
2018-08-01T06:57:44.866Z,26.26
2018-08-01T06:58:10.392Z,26.25
2018-08-01T06:58:35.872Z,26.22
2018-08-01T06:59:01.359Z,26.28
2018-08-01T06:59:26.846Z,26.28
2018-08-01T06:59:52.340Z,26.23
2018-08-01T07:00:17.834Z,26.28
2018-08-01T07:00:43.404Z,26.25
2018-08-01T07:01:08.828Z,26.36
2018-08-01T07:01:34.320Z,26.43
2018-08-01T07:01:59.853Z,26.48
2018-08-01T07:02:25.333Z,26.52
2018-08-01T07:02:50.822Z,26.58
2018-08-01T07:03:16.337Z,26.52
2018-08-01T07:03:41.809Z,26.55
2018-08-01T07:04:07.323Z,26.45
2018-08-01T07:04:32.916Z,26.37
2018-08-01T07:04:58.408Z,26.34
2018-08-01T07:05:23.907Z,26.38
2018-08-01T07:05:49.416Z,26.34
2018-08-01T07:06:14.911Z,26.36
2018-08-01T07:06:40.444Z,26.41
2018-08-01T07:07:05.987Z,26.36
2018-08-01T07:07:31.413Z,26.36
2018-08-01T07:07:56.920Z,26.22
2018-08-01T07:08:22.417Z,26.34
2018-08-01T07:08:47.970Z,26.37
2018-08-01T07:09:13.889Z,26.36
2018-08-01T07:09:39.375Z,26.41
2018-08-01T07:10:05.069Z,26.41
2018-08-01T07:10:30.554Z,26.43
2018-08-01T07:10:56.047Z,26.45
2018-08-01T07:11:21.571Z,26.55
2018-08-01T07:11:47.060Z,26.55
2018-08-01T07:12:12.672Z,26.63
2018-08-01T07:12:38.423Z,26.66
2018-08-01T07:13:03.715Z,26.63
2018-08-01T07:13:29.239Z,26.65
2018-08-01T07:13:55.039Z,26.7
2018-08-01T07:14:20.553Z,26.75
2018-08-01T07:14:46.126Z,26.84
2018-08-01T07:15:11.607Z,26.85
2018-08-01T07:15:37.119Z,26.92
2018-08-01T07:16:02.595Z,26.96
2018-08-01T07:16:28.222Z,26.93
2018-08-01T07:16:53.688Z,26.97
2018-08-01T07:17:19.195Z,27
2018-08-01T07:17:45.219Z,26.97
2018-08-01T07:18:10.748Z,27.03
2018-08-01T07:18:36.260Z,27
2018-08-01T07:19:01.758Z,27.07
2018-08-01T07:19:27.257Z,27.03
2018-08-01T07:19:52.805Z,27.03
2018-08-01T07:20:18.282Z,27.02
2018-08-01T07:20:43.803Z,27.03
2018-08-01T07:21:09.300Z,27.2
2018-08-01T07:21:34.841Z,27.2
2018-08-01T07:22:00.278Z,27.21
2018-08-01T07:22:25.919Z,27.21
2018-08-01T07:22:51.350Z,27.17
2018-08-01T07:23:16.854Z,27.15
2018-08-01T07:23:42.387Z,27.12
2018-08-01T07:24:07.873Z,27.05
2018-08-01T07:24:33.387Z,27.05
2018-08-01T07:24:58.922Z,27.1
2018-08-01T07:25:24.424Z,27.15
2018-08-01T07:25:50.039Z,27.12
2018-08-01T07:26:15.668Z,27.08
2018-08-01T07:26:41.176Z,27.18
2018-08-01T07:27:06.721Z,27.2
2018-08-01T07:27:32.212Z,27.26
2018-08-01T07:27:57.829Z,27.22
2018-08-01T07:28:23.395Z,27.35
2018-08-01T07:28:48.836Z,27.35
2018-08-01T07:29:14.350Z,27.37
2018-08-01T07:29:39.965Z,27.39
2018-08-01T07:30:05.469Z,27.35
2018-08-01T07:30:30.981Z,27.33
2018-08-01T07:30:56.560Z,27.26
2018-08-01T07:31:22.214Z,27.22
2018-08-01T07:31:47.824Z,27.3
2018-08-01T07:32:13.367Z,27.27
2018-08-01T07:32:38.865Z,27.26
2018-08-01T07:33:04.475Z,27.25
2018-08-01T07:33:29.979Z,27.27
2018-08-01T07:33:55.416Z,27.22
2018-08-01T07:34:20.926Z,27.26
2018-08-01T07:34:46.391Z,27.22
2018-08-01T07:35:11.907Z,27.25
2018-08-01T07:35:37.517Z,27.15
2018-08-01T07:36:02.974Z,27.15
2018-08-01T07:36:28.445Z,27.17
2018-08-01T07:36:53.959Z,27.17
2018-08-01T07:37:19.451Z,27.25
2018-08-01T07:37:44.969Z,27.21
2018-08-01T07:38:10.578Z,27.22
2018-08-01T07:38:36.076Z,27.21
2018-08-01T07:39:01.581Z,27.21
2018-08-01T07:39:27.193Z,27.29
2018-08-01T07:40:20.838Z,27.35
2018-08-01T07:40:46.312Z,27.39
2018-08-01T07:41:11.828Z,27.37
2018-08-01T07:41:37.317Z,27.29
2018-08-01T07:42:02.878Z,27.33
2018-08-01T07:42:28.394Z,27.29
2018-08-01T07:42:53.885Z,27.35
2018-08-01T07:43:19.443Z,27.29
2018-08-01T07:44:23.011Z,27.22
2018-08-01T07:44:48.518Z,27.27
2018-08-01T07:45:14.008Z,27.27
2018-08-01T07:45:39.518Z,27.26
2018-08-01T07:46:05.012Z,27.26
2018-08-01T07:46:30.535Z,27.21
2018-08-01T07:46:56.025Z,27.27
2018-08-01T07:47:21.535Z,27.32
2018-08-01T07:47:47.024Z,27.33
2018-08-01T07:48:12.519Z,27.25
2018-08-01T07:48:38.006Z,27.32
2018-08-01T07:49:03.484Z,27.4
2018-08-01T07:49:28.988Z,27.45
2018-08-01T07:49:54.506Z,27.42
2018-08-01T07:50:19.929Z,27.4
2018-08-01T07:50:45.516Z,27.4
2018-08-01T07:51:11.059Z,27.44
2018-08-01T07:51:36.553Z,27.44
2018-08-01T07:52:02.327Z,27.36
2018-08-01T07:52:27.787Z,27.39
2018-08-01T07:52:53.268Z,27.39
2018-08-01T07:53:18.778Z,27.39
2018-08-01T07:53:44.264Z,27.42
2018-08-01T07:54:09.775Z,27.42
2018-08-01T07:54:35.401Z,27.42
2018-08-01T07:55:00.906Z,27.47
2018-08-01T07:55:26.388Z,27.48
2018-08-01T07:55:51.942Z,27.52
2018-08-01T07:56:17.438Z,27.58
2018-08-01T07:56:42.972Z,27.51
2018-08-01T07:57:08.506Z,27.64
2018-08-01T07:57:34.017Z,27.7
2018-08-01T07:57:59.506Z,27.7
2018-08-01T07:58:24.989Z,27.68
2018-08-01T07:58:50.552Z,27.77
2018-08-01T07:59:16.033Z,27.83
2018-08-01T07:59:41.522Z,27.83
2018-08-01T08:00:07.032Z,27.95
2018-08-01T08:00:32.598Z,28.02
2018-08-01T08:00:58.105Z,27.95
2018-08-01T08:01:23.580Z,28.04
2018-08-01T08:01:49.108Z,28.05
2018-08-01T08:02:58.146Z,28.08
2018-08-01T08:03:23.650Z,28.11
2018-08-01T08:03:49.183Z,28.08
2018-08-01T08:04:14.604Z,28.12
2018-08-01T08:04:40.105Z,28.17
2018-08-01T08:05:05.599Z,28.17
2018-08-01T08:05:31.110Z,28.12
2018-08-01T08:05:56.647Z,28.15
2018-08-01T08:06:22.142Z,28.17
2018-08-01T08:06:47.607Z,28.22
2018-08-01T08:07:13.150Z,28.38
2018-08-01T08:07:38.690Z,28.35
2018-08-01T08:08:04.083Z,28.37
2018-08-01T08:08:52.404Z,28.45
2018-08-01T08:09:17.920Z,28.45
2018-08-01T08:09:43.495Z,28.6
2018-08-01T08:10:08.964Z,28.64
2018-08-01T08:10:34.517Z,28.75
2018-08-01T08:11:00.113Z,28.7
2018-08-01T08:11:25.488Z,28.85
2018-08-01T08:11:50.959Z,28.89
2018-08-01T08:12:16.458Z,28.98
2018-08-01T08:12:42.168Z,29.07
2018-08-01T08:13:07.642Z,29.08
2018-08-01T08:13:33.147Z,29.23
2018-08-01T08:13:58.685Z,29.32
2018-08-01T08:14:24.165Z,29.35
2018-08-01T08:14:49.698Z,29.23
2018-08-01T08:15:15.199Z,29.39
2018-08-01T08:15:40.712Z,29.41
2018-08-01T08:16:06.202Z,29.47
2018-08-01T08:16:31.691Z,29.41
2018-08-01T08:16:57.191Z,29.47
2018-08-01T08:17:22.707Z,29.36
2018-08-01T08:18:16.111Z,29.35
2018-08-01T08:18:41.638Z,29.32
2018-08-01T08:19:07.167Z,29.31
2018-08-01T08:19:32.656Z,29.36
2018-08-01T08:19:58.168Z,29.35
2018-08-01T08:20:23.670Z,29.29
2018-08-01T08:20:49.177Z,29.23
2018-08-01T08:21:14.735Z,29.19
2018-08-01T08:21:40.173Z,29.14
2018-08-01T08:22:05.657Z,29.13
2018-08-01T08:22:31.122Z,29.04
2018-08-01T08:22:56.614Z,29.12
2018-08-01T08:23:22.101Z,29.14
2018-08-01T08:23:47.577Z,29.02
2018-08-01T08:24:13.059Z,29.13
2018-08-01T08:24:38.556Z,29.02
2018-08-01T08:25:04.027Z,29.14
2018-08-01T08:25:29.603Z,28.98
2018-08-01T08:25:55.104Z,28.96
2018-08-01T08:26:20.567Z,28.97
2018-08-01T08:26:46.046Z,28.93
2018-08-01T08:27:11.470Z,28.94
2018-08-01T08:27:37.056Z,28.84
2018-08-01T08:28:02.455Z,28.91
2018-08-01T08:28:27.984Z,28.85
2018-08-01T08:28:53.448Z,28.98
2018-08-01T08:29:18.945Z,28.96
2018-08-01T08:29:44.503Z,29.12
2018-08-01T08:30:09.998Z,29.07
2018-08-01T08:30:35.495Z,29.13
2018-08-01T08:31:01.008Z,29.16
2018-08-01T08:31:26.676Z,29.16
2018-08-01T08:32:35.312Z,29.17
2018-08-01T08:33:00.830Z,29.23
2018-08-01T08:33:26.310Z,29.12
2018-08-01T08:33:51.846Z,29.26
2018-08-01T08:34:17.363Z,29.19
2018-08-01T08:34:42.859Z,29.22
2018-08-01T08:35:08.377Z,29.23
2018-08-01T08:35:33.900Z,29.2
2018-08-01T08:35:59.410Z,29.26
2018-08-01T08:36:24.923Z,29.29
2018-08-01T08:36:50.453Z,29.24
2018-08-01T08:37:15.925Z,29.35
2018-08-01T08:37:41.449Z,29.34
2018-08-01T08:38:06.988Z,29.34
2018-08-01T08:38:32.477Z,29.34
2018-08-01T08:38:58.024Z,29.29
2018-08-01T08:39:23.636Z,29.27
2018-08-01T08:39:49.006Z,29.32
2018-08-01T08:40:14.509Z,29.24
2018-08-01T08:40:39.991Z,29.27
2018-08-01T08:41:48.715Z,29.14
2018-08-01T08:42:14.373Z,29.12
2018-08-01T08:42:39.790Z,29.13
2018-08-01T08:43:05.297Z,29.1
2018-08-01T08:43:30.752Z,29.12
2018-08-01T08:43:56.266Z,29.16
2018-08-01T08:44:21.751Z,29.12
2018-08-01T08:44:47.261Z,29.24
2018-08-01T08:45:12.808Z,29.32
2018-08-01T08:45:38.350Z,29.32
2018-08-01T08:46:03.843Z,29.26
2018-08-01T08:46:29.346Z,29.35
2018-08-01T08:46:54.814Z,29.36
2018-08-01T08:47:20.328Z,29.38
2018-08-01T08:47:45.830Z,29.35
2018-08-01T08:48:11.339Z,29.38
2018-08-01T08:48:37.108Z,29.41
2018-08-01T08:49:02.391Z,29.38
2018-08-01T08:49:27.804Z,29.42
2018-08-01T08:49:53.327Z,29.42
2018-08-01T08:50:18.859Z,29.45
2018-08-01T08:50:44.616Z,29.42
2018-08-01T08:51:10.003Z,29.35
2018-08-01T08:51:35.483Z,29.36
2018-08-01T08:52:00.970Z,29.41
2018-08-01T08:52:26.470Z,29.44
2018-08-01T08:52:52.070Z,29.39
2018-08-01T08:53:17.619Z,29.42
2018-08-01T08:53:43.146Z,29.49
2018-08-01T08:54:08.646Z,29.49
2018-08-01T08:54:34.134Z,29.5
2018-08-01T08:54:59.650Z,29.51
2018-08-01T08:55:25.138Z,29.54
2018-08-01T08:55:50.688Z,29.63
2018-08-01T08:56:16.194Z,29.68
2018-08-01T08:56:41.788Z,29.76
2018-08-01T08:57:07.288Z,29.79
2018-08-01T08:57:32.802Z,29.84
2018-08-01T08:57:58.310Z,29.79
2018-08-01T08:58:23.804Z,29.95
2018-08-01T08:58:49.359Z,29.86
2018-08-01T08:59:14.825Z,29.98
2018-08-01T08:59:40.327Z,30
2018-08-01T09:00:05.882Z,30.03
2018-08-01T09:00:31.527Z,29.98
2018-08-01T09:00:57.014Z,30.02
2018-08-01T09:01:22.470Z,30.06
2018-08-01T09:01:47.961Z,30.05
2018-08-01T09:02:13.467Z,30.06
2018-08-01T09:02:39.003Z,30.09
2018-08-01T09:03:04.511Z,30.06
2018-08-01T09:03:30.020Z,30.16
2018-08-01T09:03:55.537Z,30.16
2018-08-01T09:04:21.025Z,30.24
2018-08-01T09:04:46.511Z,30.28
2018-08-01T09:05:12.014Z,30.3
2018-08-01T09:05:37.519Z,30.25
2018-08-01T09:06:03.001Z,30.21
2018-08-01T09:06:28.505Z,30.18
2018-08-01T09:06:53.985Z,30.18
2018-08-01T09:07:19.559Z,30.09
2018-08-01T09:07:45.009Z,30.05
2018-08-01T09:08:10.519Z,30.03
2018-08-01T09:08:36.104Z,29.94
2018-08-01T09:09:01.608Z,30.02
2018-08-01T09:10:00.152Z,29.93
2018-08-01T09:10:25.653Z,29.87
2018-08-01T09:10:51.693Z,29.88
2018-08-01T09:11:17.056Z,29.91
2018-08-01T09:11:42.540Z,29.88
2018-08-01T09:12:08.093Z,29.84
2018-08-01T09:12:33.609Z,29.82
2018-08-01T09:12:59.312Z,29.78
2018-08-01T09:13:24.763Z,29.76
2018-08-01T09:13:50.268Z,29.79
2018-08-01T09:14:15.866Z,29.69
2018-08-01T09:14:41.301Z,29.71
2018-08-01T09:15:06.792Z,29.65
2018-08-01T09:15:32.337Z,29.63
2018-08-01T09:15:57.831Z,29.59
2018-08-01T09:16:23.338Z,29.59
2018-08-01T09:16:48.878Z,29.49
2018-08-01T09:17:14.372Z,29.47
2018-08-01T09:17:39.881Z,29.45
2018-08-01T09:18:33.332Z,29.44
2018-08-01T09:18:58.871Z,29.45
2018-08-01T09:19:24.379Z,29.42
2018-08-01T09:19:49.886Z,29.44
2018-08-01T09:20:15.578Z,29.42
2018-08-01T09:20:41.047Z,29.41
2018-08-01T09:21:06.585Z,29.47
2018-08-01T09:21:32.068Z,29.45
2018-08-01T09:21:57.616Z,29.5
2018-08-01T09:22:23.117Z,29.45
2018-08-01T09:22:48.825Z,29.56
2018-08-01T09:23:14.261Z,29.5
2018-08-01T09:23:39.773Z,29.6
2018-08-01T09:24:05.313Z,29.56
2018-08-01T09:24:30.894Z,29.6
2018-08-01T09:24:56.387Z,29.6
2018-08-01T09:25:21.895Z,29.63
2018-08-01T09:25:47.417Z,29.65
2018-08-01T09:26:12.960Z,29.72
2018-08-01T09:26:38.452Z,29.82
2018-08-01T09:27:03.948Z,29.9
2018-08-01T09:27:29.522Z,29.86
2018-08-01T09:27:54.949Z,29.93
2018-08-01T09:28:20.441Z,30.03
2018-08-01T09:28:45.959Z,29.98
2018-08-01T09:29:11.432Z,30.05
2018-08-01T09:29:36.933Z,30.09
2018-08-01T09:30:02.440Z,30.06
2018-08-01T09:30:27.941Z,30.15
2018-08-01T09:30:53.435Z,30.34
2018-08-01T09:31:18.925Z,30.31
2018-08-01T09:31:44.452Z,30.39
2018-08-01T09:32:09.923Z,30.35
2018-08-01T09:32:35.554Z,30.5
2018-08-01T09:33:00.965Z,30.57
2018-08-01T09:33:26.458Z,30.44
2018-08-01T09:33:51.948Z,30.44
2018-08-01T09:34:17.474Z,30.48
2018-08-01T09:34:42.987Z,30.59
2018-08-01T09:35:08.465Z,30.54
2018-08-01T09:35:34.021Z,30.48
2018-08-01T09:35:59.467Z,30.57
2018-08-01T09:36:24.997Z,30.5
2018-08-01T09:36:50.490Z,30.54
2018-08-01T09:37:16.001Z,30.57
2018-08-01T09:37:41.580Z,30.54
2018-08-01T09:38:07.077Z,30.53
2018-08-01T09:38:32.560Z,30.48
2018-08-01T09:38:58.127Z,30.59
2018-08-01T09:39:23.617Z,30.59
2018-08-01T09:39:49.109Z,30.57
2018-08-01T09:40:14.629Z,30.54
2018-08-01T09:40:40.083Z,30.62
2018-08-01T09:41:05.610Z,30.59
2018-08-01T09:41:31.100Z,30.68
2018-08-01T09:41:56.587Z,30.69
2018-08-01T09:42:22.027Z,30.77
2018-08-01T09:42:47.523Z,30.8
2018-08-01T09:43:35.843Z,30.78
2018-08-01T09:44:01.324Z,30.73
2018-08-01T09:44:26.809Z,30.7
2018-08-01T09:44:52.323Z,30.77
2018-08-01T09:45:17.798Z,30.72
2018-08-01T09:45:43.266Z,30.75
2018-08-01T09:46:36.732Z,30.69
2018-08-01T09:47:02.251Z,30.66
2018-08-01T09:47:27.711Z,30.63
2018-08-01T09:47:53.210Z,30.7
2018-08-01T09:48:18.690Z,30.61
2018-08-01T09:48:44.169Z,30.57
2018-08-01T09:49:09.648Z,30.44
2018-08-01T09:49:35.172Z,30.46
2018-08-01T09:50:00.625Z,30.4